sensor_id;sensor_type;location;lat;lon;timestamp;pressure;altitude;pressure_sealevel;temperature
70415;BMP280;57837;52.064;113.478;2023-11-18T00:00:57;93353.28;;;-6.30
70415;BMP280;57837;52.064;113.478;2023-11-18T00:04:02;93356.13;;;-6.15
70415;BMP280;57837;52.064;113.478;2023-11-18T00:07:06;93350.91;;;-6.07
70415;BMP280;57837;52.064;113.478;2023-11-18T00:10:10;93351.31;;;-6.05
70415;BMP280;57837;52.064;113.478;2023-11-18T00:13:14;93350.50;;;-6.09
70415;BMP280;57837;52.064;113.478;2023-11-18T00:16:19;93351.00;;;-6.03
70415;BMP280;57837;52.064;113.478;2023-11-18T00:19:23;93346.75;;;-5.99
70415;BMP280;57837;52.064;113.478;2023-11-18T00:22:27;93347.94;;;-5.93
70415;BMP280;57837;52.064;113.478;2023-11-18T00:25:31;93345.81;;;-5.91
70415;BMP280;57837;52.064;113.478;2023-11-18T00:28:37;93340.75;;;-5.75
70415;BMP280;57837;52.064;113.478;2023-11-18T00:31:41;93345.69;;;-5.63
70415;BMP280;57837;52.064;113.478;2023-11-18T00:34:44;93351.28;;;-5.54
70415;BMP280;57837;52.064;113.478;2023-11-18T00:37:47;93348.09;;;-5.51
70415;BMP280;57837;52.064;113.478;2023-11-18T00:40:52;93361.47;;;-5.47
70415;BMP280;57837;52.064;113.478;2023-11-18T00:43:55;93360.06;;;-5.44
70415;BMP280;57837;52.064;113.478;2023-11-18T00:46:59;93360.69;;;-5.32
70415;BMP280;57837;52.064;113.478;2023-11-18T00:50:03;93356.88;;;-5.26
70415;BMP280;57837;52.064;113.478;2023-11-18T00:53:11;93352.88;;;-5.07
70415;BMP280;57837;52.064;113.478;2023-11-18T00:56:16;93359.22;;;-4.94
70415;BMP280;57837;52.064;113.478;2023-11-18T00:59:21;93369.16;;;-4.82
70415;BMP280;57837;52.064;113.478;2023-11-18T01:02:25;93374.34;;;-4.52
70415;BMP280;57837;52.064;113.478;2023-11-18T01:05:31;93369.97;;;-4.55
70415;BMP280;57837;52.064;113.478;2023-11-18T01:08:34;93379.81;;;-4.23
70415;BMP280;57837;52.064;113.478;2023-11-18T01:11:39;93373.94;;;-3.78
70415;BMP280;57837;52.064;113.478;2023-11-18T01:15:03;93374.91;;;-3.60
70415;BMP280;57837;52.064;113.478;2023-11-18T01:18:08;93381.59;;;-3.45
70415;BMP280;57837;52.064;113.478;2023-11-18T01:21:12;93388.91;;;-3.36
70415;BMP280;57837;52.064;113.478;2023-11-18T01:24:16;93387.19;;;-3.28
70415;BMP280;57837;52.064;113.478;2023-11-18T01:27:20;93378.88;;;-3.29
70415;BMP280;57837;52.064;113.478;2023-11-18T01:30:24;93391.09;;;-3.01
70415;BMP280;57837;52.064;113.478;2023-11-18T01:33:30;93388.19;;;-3.03
70415;BMP280;57837;52.064;113.478;2023-11-18T01:36:37;93394.84;;;-2.88
70415;BMP280;57837;52.064;113.478;2023-11-18T01:39:40;93377.97;;;-2.77
70415;BMP280;57837;52.064;113.478;2023-11-18T01:42:45;93373.69;;;-2.66
70415;BMP280;57837;52.064;113.478;2023-11-18T01:45:49;93388.22;;;-2.62
70415;BMP280;57837;52.064;113.478;2023-11-18T01:48:52;93391.06;;;-2.64
70415;BMP280;57837;52.064;113.478;2023-11-18T01:51:56;93394.81;;;-2.54
70415;BMP280;57837;52.064;113.478;2023-11-18T01:55:01;93391.91;;;-2.53
70415;BMP280;57837;52.064;113.478;2023-11-18T01:58:07;93394.84;;;-2.47
70415;BMP280;57837;52.064;113.478;2023-11-18T02:01:13;93392.03;;;-2.35
70415;BMP280;57837;52.064;113.478;2023-11-18T02:04:20;93393.09;;;-2.36
70415;BMP280;57837;52.064;113.478;2023-11-18T02:07:25;93395.72;;;-2.29
70415;BMP280;57837;52.064;113.478;2023-11-18T02:10:30;93386.69;;;-2.26
70415;BMP280;57837;52.064;113.478;2023-11-18T02:13:36;93388.56;;;-2.13
70415;BMP280;57837;52.064;113.478;2023-11-18T02:16:43;93390.38;;;-2.17
70415;BMP280;57837;52.064;113.478;2023-11-18T02:19:49;93391.94;;;-1.98
70415;BMP280;57837;52.064;113.478;2023-11-18T02:22:53;93404.84;;;-1.55
70415;BMP280;57837;52.064;113.478;2023-11-18T02:25:57;93403.81;;;-1.44
70415;BMP280;57837;52.064;113.478;2023-11-18T02:29:02;93394.47;;;-1.25
70415;BMP280;57837;52.064;113.478;2023-11-18T02:32:28;93393.06;;;-0.94
70415;BMP280;57837;52.064;113.478;2023-11-18T02:35:44;93398.53;;;-0.89
70415;BMP280;57837;52.064;113.478;2023-11-18T02:38:52;93387.63;;;-0.96
70415;BMP280;57837;52.064;113.478;2023-11-18T02:41:58;93397.09;;;-0.83
70415;BMP280;57837;52.064;113.478;2023-11-18T02:45:07;93392.72;;;-0.89
70415;BMP280;57837;52.064;113.478;2023-11-18T02:48:14;93381.09;;;-0.94
70415;BMP280;57837;52.064;113.478;2023-11-18T02:51:18;93378.59;;;-0.69
70415;BMP280;57837;52.064;113.478;2023-11-18T02:54:22;93389.47;;;-0.44
70415;BMP280;57837;52.064;113.478;2023-11-18T02:57:26;93382.59;;;-0.43
70415;BMP280;57837;52.064;113.478;2023-11-18T03:00:31;93401.13;;;-0.32
70415;BMP280;57837;52.064;113.478;2023-11-18T03:03:34;93392.38;;;-0.17
70415;BMP280;57837;52.064;113.478;2023-11-18T03:06:38;93402.88;;;0.07
70415;BMP280;57837;52.064;113.478;2023-11-18T03:09:44;93384.75;;;-0.03
70415;BMP280;57837;52.064;113.478;2023-11-18T03:12:54;93390.13;;;0.24
70415;BMP280;57837;52.064;113.478;2023-11-18T03:15:58;93387.81;;;0.55
70415;BMP280;57837;52.064;113.478;2023-11-18T03:19:02;93389.56;;;0.76
70415;BMP280;57837;52.064;113.478;2023-11-18T03:22:07;93390.53;;;0.96
70415;BMP280;57837;52.064;113.478;2023-11-18T03:25:12;93389.53;;;0.79
70415;BMP280;57837;52.064;113.478;2023-11-18T03:28:16;93385.59;;;0.64
70415;BMP280;57837;52.064;113.478;2023-11-18T03:31:20;93375.47;;;0.50
70415;BMP280;57837;52.064;113.478;2023-11-18T03:34:24;93369.28;;;0.54
70415;BMP280;57837;52.064;113.478;2023-11-18T03:37:27;93362.31;;;0.65
70415;BMP280;57837;52.064;113.478;2023-11-18T03:40:31;93368.13;;;0.69
70415;BMP280;57837;52.064;113.478;2023-11-18T03:43:34;93363.22;;;1.00
70415;BMP280;57837;52.064;113.478;2023-11-18T03:46:38;93365.25;;;1.23
70415;BMP280;57837;52.064;113.478;2023-11-18T03:49:42;93361.59;;;1.24
70415;BMP280;57837;52.064;113.478;2023-11-18T03:52:45;93361.50;;;1.34
70415;BMP280;57837;52.064;113.478;2023-11-18T03:55:49;93342.47;;;1.46
70415;BMP280;57837;52.064;113.478;2023-11-18T03:58:55;93341.25;;;1.20
70415;BMP280;57837;52.064;113.478;2023-11-18T04:01:59;93345.44;;;0.89
70415;BMP280;57837;52.064;113.478;2023-11-18T04:05:02;93347.38;;;0.71
70415;BMP280;57837;52.064;113.478;2023-11-18T04:08:07;93332.03;;;0.82
70415;BMP280;57837;52.064;113.478;2023-11-18T04:11:11;93329.22;;;1.21
70415;BMP280;57837;52.064;113.478;2023-11-18T04:14:16;93335.53;;;1.50
70415;BMP280;57837;52.064;113.478;2023-11-18T04:17:20;93330.25;;;1.68
70415;BMP280;57837;52.064;113.478;2023-11-18T04:20:24;93332.59;;;1.89
70415;BMP280;57837;52.064;113.478;2023-11-18T04:23:28;93327.44;;;1.93
70415;BMP280;57837;52.064;113.478;2023-11-18T04:26:32;93336.69;;;1.83
70415;BMP280;57837;52.064;113.478;2023-11-18T04:29:36;93332.47;;;1.66
70415;BMP280;57837;52.064;113.478;2023-11-18T04:32:41;93336.06;;;1.68
70415;BMP280;57837;52.064;113.478;2023-11-18T04:35:46;93328.34;;;1.79
70415;BMP280;57837;52.064;113.478;2023-11-18T04:38:50;93325.78;;;1.79
70415;BMP280;57837;52.064;113.478;2023-11-18T04:41:54;93321.47;;;1.72
70415;BMP280;57837;52.064;113.478;2023-11-18T04:45:00;93316.53;;;1.55
70415;BMP280;57837;52.064;113.478;2023-11-18T04:48:04;93312.94;;;1.49
70415;BMP280;57837;52.064;113.478;2023-11-18T04:51:08;93303.56;;;1.38
70415;BMP280;57837;52.064;113.478;2023-11-18T04:54:12;93300.34;;;1.34
70415;BMP280;57837;52.064;113.478;2023-11-18T04:57:16;93302.72;;;1.52
70415;BMP280;57837;52.064;113.478;2023-11-18T05:00:21;93300.66;;;1.78
70415;BMP280;57837;52.064;113.478;2023-11-18T05:03:25;93303.94;;;2.08
70415;BMP280;57837;52.064;113.478;2023-11-18T05:06:30;93297.34;;;2.41
70415;BMP280;57837;52.064;113.478;2023-11-18T05:09:34;93290.19;;;2.83
70415;BMP280;57837;52.064;113.478;2023-11-18T05:12:38;93289.59;;;3.22
70415;BMP280;57837;52.064;113.478;2023-11-18T05:15:56;93287.09;;;3.58
70415;BMP280;57837;52.064;113.478;2023-11-18T05:19:00;93288.09;;;3.84
70415;BMP280;57837;52.064;113.478;2023-11-18T05:22:04;93284.47;;;4.01
70415;BMP280;57837;52.064;113.478;2023-11-18T05:25:08;93288.03;;;4.23
70415;BMP280;57837;52.064;113.478;2023-11-18T05:28:13;93287.44;;;4.36
70415;BMP280;57837;52.064;113.478;2023-11-18T05:31:16;93290.16;;;4.45
70415;BMP280;57837;52.064;113.478;2023-11-18T05:34:20;93292.56;;;4.36
70415;BMP280;57837;52.064;113.478;2023-11-18T05:37:24;93293.75;;;4.31
70415;BMP280;57837;52.064;113.478;2023-11-18T05:40:28;93288.97;;;4.33
70415;BMP280;57837;52.064;113.478;2023-11-18T05:43:33;93290.00;;;4.36
70415;BMP280;57837;52.064;113.478;2023-11-18T05:46:43;93295.84;;;4.36
70415;BMP280;57837;52.064;113.478;2023-11-18T05:49:50;93295.25;;;4.29
70415;BMP280;57837;52.064;113.478;2023-11-18T05:52:54;93295.31;;;4.25
70415;BMP280;57837;52.064;113.478;2023-11-18T05:55:58;93305.31;;;4.19
70415;BMP280;57837;52.064;113.478;2023-11-18T05:59:02;93292.66;;;4.12
70415;BMP280;57837;52.064;113.478;2023-11-18T06:02:09;93296.56;;;4.01
70415;BMP280;57837;52.064;113.478;2023-11-18T06:05:21;93298.38;;;4.00
70415;BMP280;57837;52.064;113.478;2023-11-18T06:08:29;93290.66;;;4.20
70415;BMP280;57837;52.064;113.478;2023-11-18T06:11:35;93296.56;;;4.37
70415;BMP280;57837;52.064;113.478;2023-11-18T06:14:43;93295.13;;;4.52
70415;BMP280;57837;52.064;113.478;2023-11-18T06:17:48;93289.03;;;4.62
70415;BMP280;57837;52.064;113.478;2023-11-18T06:20:52;93287.78;;;4.54
70415;BMP280;57837;52.064;113.478;2023-11-18T06:23:57;93300.41;;;4.61
70415;BMP280;57837;52.064;113.478;2023-11-18T06:27:01;93295.28;;;4.61
70415;BMP280;57837;52.064;113.478;2023-11-18T06:30:04;93292.97;;;4.67
70415;BMP280;57837;52.064;113.478;2023-11-18T06:33:11;93290.16;;;4.61
70415;BMP280;57837;52.064;113.478;2023-11-18T06:39:22;93291.13;;;4.51
70415;BMP280;57837;52.064;113.478;2023-11-18T06:42:32;93287.38;;;4.55
70415;BMP280;57837;52.064;113.478;2023-11-18T06:45:42;93287.91;;;4.47
70415;BMP280;57837;52.064;113.478;2023-11-18T06:48:48;93287.66;;;4.41
70415;BMP280;57837;52.064;113.478;2023-11-18T06:51:53;93283.84;;;4.33
70415;BMP280;57837;52.064;113.478;2023-11-18T06:54:56;93286.47;;;4.30
70415;BMP280;57837;52.064;113.478;2023-11-18T06:58:00;93294.94;;;4.27
70415;BMP280;57837;52.064;113.478;2023-11-18T07:01:05;93291.72;;;4.22
70415;BMP280;57837;52.064;113.478;2023-11-18T07:04:09;93294.94;;;4.27
70415;BMP280;57837;52.064;113.478;2023-11-18T07:07:13;93300.38;;;4.29
70415;BMP280;57837;52.064;113.478;2023-11-18T07:10:17;93303.59;;;4.33
70415;BMP280;57837;52.064;113.478;2023-11-18T07:13:23;93309.19;;;4.28
70415;BMP280;57837;52.064;113.478;2023-11-18T07:16:28;93314.63;;;4.30
70415;BMP280;57837;52.064;113.478;2023-11-18T07:19:31;93316.75;;;4.35
70415;BMP280;57837;52.064;113.478;2023-11-18T07:22:36;93332.25;;;4.28
70415;BMP280;57837;52.064;113.478;2023-11-18T07:25:41;93334.13;;;4.23
70415;BMP280;57837;52.064;113.478;2023-11-18T07:28:47;93342.53;;;4.24
70415;BMP280;57837;52.064;113.478;2023-11-18T07:31:50;93340.38;;;4.22
70415;BMP280;57837;52.064;113.478;2023-11-18T07:34:54;93352.47;;;4.22
70415;BMP280;57837;52.064;113.478;2023-11-18T07:37:58;93343.94;;;4.29
70415;BMP280;57837;52.064;113.478;2023-11-18T07:41:02;93355.88;;;4.35
70415;BMP280;57837;52.064;113.478;2023-11-18T07:44:06;93347.34;;;4.38
70415;BMP280;57837;52.064;113.478;2023-11-18T07:47:11;93356.75;;;4.45
70415;BMP280;57837;52.064;113.478;2023-11-18T07:50:15;93357.25;;;4.56
70415;BMP280;57837;52.064;113.478;2023-11-18T07:53:20;93356.56;;;4.55
70415;BMP280;57837;52.064;113.478;2023-11-18T07:56:24;93357.03;;;4.50
70415;BMP280;57837;52.064;113.478;2023-11-18T07:59:28;93359.25;;;4.48
70415;BMP280;57837;52.064;113.478;2023-11-18T08:02:32;93362.81;;;4.54
70415;BMP280;57837;52.064;113.478;2023-11-18T08:05:36;93368.22;;;4.56
70415;BMP280;57837;52.064;113.478;2023-11-18T08:08:40;93380.09;;;4.50
70415;BMP280;57837;52.064;113.478;2023-11-18T08:11:43;93376.59;;;4.41
70415;BMP280;57837;52.064;113.478;2023-11-18T08:14:47;93378.56;;;4.37
70415;BMP280;57837;52.064;113.478;2023-11-18T08:17:50;93381.00;;;4.40
70415;BMP280;57837;52.064;113.478;2023-11-18T08:20:55;93391.91;;;4.44
70415;BMP280;57837;52.064;113.478;2023-11-18T08:23:59;93387.16;;;4.43
70415;BMP280;57837;52.064;113.478;2023-11-18T08:27:03;93395.84;;;4.49
70415;BMP280;57837;52.064;113.478;2023-11-18T08:30:08;93382.00;;;4.46
70415;BMP280;57837;52.064;113.478;2023-11-18T08:33:15;93374.13;;;4.37
70415;BMP280;57837;52.064;113.478;2023-11-18T08:36:18;93389.66;;;4.30
70415;BMP280;57837;52.064;113.478;2023-11-18T08:39:22;93383.91;;;4.22
70415;BMP280;57837;52.064;113.478;2023-11-18T08:42:29;93393.97;;;4.13
70415;BMP280;57837;52.064;113.478;2023-11-18T08:45:34;93392.34;;;4.03
70415;BMP280;57837;52.064;113.478;2023-11-18T08:48:39;93395.91;;;3.86
70415;BMP280;57837;52.064;113.478;2023-11-18T08:51:43;93400.88;;;3.73
70415;BMP280;57837;52.064;113.478;2023-11-18T08:54:47;93399.63;;;3.62
70415;BMP280;57837;52.064;113.478;2023-11-18T08:58:10;93403.72;;;3.32
70415;BMP280;57837;52.064;113.478;2023-11-18T09:01:25;93406.16;;;3.20
70415;BMP280;57837;52.064;113.478;2023-11-18T09:04:33;93407.34;;;3.11
70415;BMP280;57837;52.064;113.478;2023-11-18T09:07:37;93423.16;;;3.03
70415;BMP280;57837;52.064;113.478;2023-11-18T09:10:41;93436.28;;;3.05
70415;BMP280;57837;52.064;113.478;2023-11-18T09:13:47;93434.88;;;3.00
70415;BMP280;57837;52.064;113.478;2023-11-18T09:16:54;93430.53;;;2.97
70415;BMP280;57837;52.064;113.478;2023-11-18T09:20:00;93437.09;;;2.98
70415;BMP280;57837;52.064;113.478;2023-11-18T09:23:03;93443.47;;;2.87
70415;BMP280;57837;52.064;113.478;2023-11-18T09:26:09;93444.59;;;2.82
70415;BMP280;57837;52.064;113.478;2023-11-18T09:29:13;93432.22;;;2.81
70415;BMP280;57837;52.064;113.478;2023-11-18T09:32:23;93441.38;;;2.78
70415;BMP280;57837;52.064;113.478;2023-11-18T09:35:29;93445.78;;;2.74
70415;BMP280;57837;52.064;113.478;2023-11-18T09:38:35;93451.63;;;2.74
70415;BMP280;57837;52.064;113.478;2023-11-18T09:41:39;93450.28;;;2.66
70415;BMP280;57837;52.064;113.478;2023-11-18T09:44:43;93459.84;;;2.59
70415;BMP280;57837;52.064;113.478;2023-11-18T09:47:47;93458.41;;;2.58
70415;BMP280;57837;52.064;113.478;2023-11-18T09:50:52;93466.56;;;2.46
70415;BMP280;57837;52.064;113.478;2023-11-18T09:54:01;93479.03;;;2.40
70415;BMP280;57837;52.064;113.478;2023-11-18T09:57:27;93487.03;;;2.42
70415;BMP280;57837;52.064;113.478;2023-11-18T10:00:35;93485.13;;;2.50
70415;BMP280;57837;52.064;113.478;2023-11-18T10:03:42;93494.94;;;2.51
70415;BMP280;57837;52.064;113.478;2023-11-18T10:06:49;93499.00;;;2.49
70415;BMP280;57837;52.064;113.478;2023-11-18T10:09:57;93504.53;;;2.43
70415;BMP280;57837;52.064;113.478;2023-11-18T10:13:00;93508.22;;;2.39
70415;BMP280;57837;52.064;113.478;2023-11-18T10:16:08;93511.09;;;2.45
70415;BMP280;57837;52.064;113.478;2023-11-18T10:19:13;93508.97;;;2.36
70415;BMP280;57837;52.064;113.478;2023-11-18T10:22:28;93506.06;;;2.34
70415;BMP280;57837;52.064;113.478;2023-11-18T10:25:32;93511.16;;;2.37
70415;BMP280;57837;52.064;113.478;2023-11-18T10:28:38;93523.16;;;2.40
70415;BMP280;57837;52.064;113.478;2023-11-18T10:31:42;93520.50;;;2.51
70415;BMP280;57837;52.064;113.478;2023-11-18T10:34:49;93523.44;;;2.50
70415;BMP280;57837;52.064;113.478;2023-11-18T10:37:53;93511.00;;;2.52
70415;BMP280;57837;52.064;113.478;2023-11-18T10:40:59;93516.97;;;2.38
70415;BMP280;57837;52.064;113.478;2023-11-18T10:44:07;93526.88;;;2.32
70415;BMP280;57837;52.064;113.478;2023-11-18T10:47:11;93525.03;;;2.33
70415;BMP280;57837;52.064;113.478;2023-11-18T10:50:16;93520.75;;;2.26
70415;BMP280;57837;52.064;113.478;2023-11-18T10:53:23;93518.19;;;2.26
70415;BMP280;57837;52.064;113.478;2023-11-18T10:56:30;93515.00;;;2.15
70415;BMP280;57837;52.064;113.478;2023-11-18T10:59:35;93526.31;;;2.18
70415;BMP280;57837;52.064;113.478;2023-11-18T11:02:41;93528.28;;;2.37
70415;BMP280;57837;52.064;113.478;2023-11-18T11:05:45;93516.88;;;2.49
70415;BMP280;57837;52.064;113.478;2023-11-18T11:08:50;93530.72;;;2.51
70415;BMP280;57837;52.064;113.478;2023-11-18T11:11:56;93523.81;;;2.48
70415;BMP280;57837;52.064;113.478;2023-11-18T11:15:18;93533.28;;;2.48
70415;BMP280;57837;52.064;113.478;2023-11-18T11:18:28;93542.00;;;2.54
70415;BMP280;57837;52.064;113.478;2023-11-18T11:21:45;93547.59;;;2.41
70415;BMP280;57837;52.064;113.478;2023-11-18T11:25:19;93542.13;;;2.39
70415;BMP280;57837;52.064;113.478;2023-11-18T11:29:13;93558.47;;;2.49
70415;BMP280;57837;52.064;113.478;2023-11-18T11:32:25;93564.97;;;2.57
70415;BMP280;57837;52.064;113.478;2023-11-18T11:35:36;93559.38;;;2.69
70415;BMP280;57837;52.064;113.478;2023-11-18T11:38:42;93568.88;;;2.65
70415;BMP280;57837;52.064;113.478;2023-11-18T11:41:53;93568.88;;;2.65
70415;BMP280;57837;52.064;113.478;2023-11-18T11:45:01;93575.81;;;2.65
70415;BMP280;57837;52.064;113.478;2023-11-18T11:48:07;93571.56;;;2.55
70415;BMP280;57837;52.064;113.478;2023-11-18T11:51:27;93576.03;;;2.43
70415;BMP280;57837;52.064;113.478;2023-11-18T11:54:45;93578.22;;;2.45
70415;BMP280;57837;52.064;113.478;2023-11-18T11:57:52;93575.22;;;2.54
70415;BMP280;57837;52.064;113.478;2023-11-18T12:01:26;93579.19;;;2.58
70415;BMP280;57837;52.064;113.478;2023-11-18T12:04:39;93583.91;;;2.60
70415;BMP280;57837;52.064;113.478;2023-11-18T12:07:47;93588.69;;;2.58
70415;BMP280;57837;52.064;113.478;2023-11-18T12:10:57;93590.50;;;2.57
70415;BMP280;57837;52.064;113.478;2023-11-18T12:14:05;93601.88;;;2.49
70415;BMP280;57837;52.064;113.478;2023-11-18T12:20:56;93600.91;;;2.32
70415;BMP280;57837;52.064;113.478;2023-11-18T12:24:15;93610.84;;;2.23
70415;BMP280;57837;52.064;113.478;2023-11-18T12:27:43;93615.00;;;1.99
70415;BMP280;57837;52.064;113.478;2023-11-18T12:31:08;93624.22;;;1.86
70415;BMP280;57837;52.064;113.478;2023-11-18T12:34:21;93618.06;;;1.80
70415;BMP280;57837;52.064;113.478;2023-11-18T12:38:02;93619.88;;;1.80
70415;BMP280;57837;52.064;113.478;2023-11-18T12:41:36;93631.56;;;1.77
70415;BMP280;57837;52.064;113.478;2023-11-18T12:48:20;93627.06;;;1.95
70415;BMP280;57837;52.064;113.478;2023-11-18T12:51:32;93633.19;;;2.08
70415;BMP280;57837;52.064;113.478;2023-11-18T12:54:39;93637.13;;;2.20
70415;BMP280;57837;52.064;113.478;2023-11-18T12:57:47;93633.72;;;2.34
70415;BMP280;57837;52.064;113.478;2023-11-18T13:00:52;93639.16;;;2.43
70415;BMP280;57837;52.064;113.478;2023-11-18T13:03:56;93649.69;;;2.49
70415;BMP280;57837;52.064;113.478;2023-11-18T13:07:00;93650.38;;;2.56
70415;BMP280;57837;52.064;113.478;2023-11-18T13:10:07;93659.09;;;2.59
70415;BMP280;57837;52.064;113.478;2023-11-18T13:13:11;93658.03;;;2.56
70415;BMP280;57837;52.064;113.478;2023-11-18T13:16:18;93657.88;;;2.29
70415;BMP280;57837;52.064;113.478;2023-11-18T13:19:29;93667.13;;;2.02
70415;BMP280;57837;52.064;113.478;2023-11-18T13:22:32;93659.47;;;1.98
70415;BMP280;57837;52.064;113.478;2023-11-18T13:25:49;93667.47;;;2.07
70415;BMP280;57837;52.064;113.478;2023-11-18T13:28:54;93675.09;;;2.15
70415;BMP280;57837;52.064;113.478;2023-11-18T13:31:58;93680.56;;;2.17
70415;BMP280;57837;52.064;113.478;2023-11-18T13:35:03;93681.53;;;2.30
70415;BMP280;57837;52.064;113.478;2023-11-18T13:38:08;93680.75;;;2.40
70415;BMP280;57837;52.064;113.478;2023-11-18T13:41:12;93677.47;;;2.43
70415;BMP280;57837;52.064;113.478;2023-11-18T13:44:35;93679.97;;;2.47
70415;BMP280;57837;52.064;113.478;2023-11-18T13:47:51;93682.50;;;2.50
70415;BMP280;57837;52.064;113.478;2023-11-18T13:50:57;93686.50;;;2.51
70415;BMP280;57837;52.064;113.478;2023-11-18T13:54:02;93682.16;;;2.48
70415;BMP280;57837;52.064;113.478;2023-11-18T13:57:08;93686.22;;;2.46
70415;BMP280;57837;52.064;113.478;2023-11-18T14:00:14;93688.03;;;2.45
70415;BMP280;57837;52.064;113.478;2023-11-18T14:03:19;93688.31;;;2.54
70415;BMP280;57837;52.064;113.478;2023-11-18T14:06:24;93695.22;;;2.61
70415;BMP280;57837;52.064;113.478;2023-11-18T14:09:32;93697.72;;;2.64
70415;BMP280;57837;52.064;113.478;2023-11-18T14:12:40;93692.25;;;2.66
70415;BMP280;57837;52.064;113.478;2023-11-18T14:15:44;93689.66;;;2.69
70415;BMP280;57837;52.064;113.478;2023-11-18T14:18:49;93684.91;;;2.71
70415;BMP280;57837;52.064;113.478;2023-11-18T14:21:55;93692.22;;;2.69
70415;BMP280;57837;52.064;113.478;2023-11-18T14:24:59;93685.31;;;2.66
70415;BMP280;57837;52.064;113.478;2023-11-18T14:28:03;93697.03;;;2.60
70415;BMP280;57837;52.064;113.478;2023-11-18T14:31:07;93693.06;;;2.56
70415;BMP280;57837;52.064;113.478;2023-11-18T14:34:13;93698.53;;;2.54
70415;BMP280;57837;52.064;113.478;2023-11-18T14:37:17;93690.47;;;2.59
70415;BMP280;57837;52.064;113.478;2023-11-18T14:40:22;93683.53;;;2.63
70415;BMP280;57837;52.064;113.478;2023-11-18T14:43:28;93686.00;;;2.70
70415;BMP280;57837;52.064;113.478;2023-11-18T14:46:32;93686.31;;;2.76
70415;BMP280;57837;52.064;113.478;2023-11-18T14:49:37;93690.75;;;2.72
70415;BMP280;57837;52.064;113.478;2023-11-18T14:52:41;93682.81;;;2.59
70415;BMP280;57837;52.064;113.478;2023-11-18T14:55:45;93688.31;;;2.54
70415;BMP280;57837;52.064;113.478;2023-11-18T14:58:49;93688.34;;;2.51
70415;BMP280;57837;52.064;113.478;2023-11-18T15:01:52;93684.72;;;2.48
70415;BMP280;57837;52.064;113.478;2023-11-18T15:05:04;93679.66;;;2.41
70415;BMP280;57837;52.064;113.478;2023-11-18T15:08:12;93687.06;;;2.25
70415;BMP280;57837;52.064;113.478;2023-11-18T15:11:25;93683.13;;;2.17
70415;BMP280;57837;52.064;113.478;2023-11-18T15:14:29;93685.44;;;1.90
70415;BMP280;57837;52.064;113.478;2023-11-18T15:17:32;93693.41;;;1.95
70415;BMP280;57837;52.064;113.478;2023-11-18T15:20:49;93692.66;;;2.02
70415;BMP280;57837;52.064;113.478;2023-11-18T15:23:55;93702.50;;;1.96
70415;BMP280;57837;52.064;113.478;2023-11-18T15:27:04;93697.03;;;1.94
70415;BMP280;57837;52.064;113.478;2023-11-18T15:30:08;93701.44;;;1.94
70415;BMP280;57837;52.064;113.478;2023-11-18T15:33:16;93696.03;;;1.85
70415;BMP280;57837;52.064;113.478;2023-11-18T15:36:19;93705.91;;;1.76
70415;BMP280;57837;52.064;113.478;2023-11-18T15:39:23;93701.94;;;1.64
70415;BMP280;57837;52.064;113.478;2023-11-18T15:42:28;93700.13;;;1.54
70415;BMP280;57837;52.064;113.478;2023-11-18T15:45:33;93695.41;;;1.56
70415;BMP280;57837;52.064;113.478;2023-11-18T15:48:38;93700.16;;;1.47
70415;BMP280;57837;52.064;113.478;2023-11-18T15:51:41;93692.50;;;1.39
70415;BMP280;57837;52.064;113.478;2023-11-18T15:54:46;93695.03;;;1.50
70415;BMP280;57837;52.064;113.478;2023-11-18T15:57:51;93699.75;;;1.62
70415;BMP280;57837;52.064;113.478;2023-11-18T16:00:59;93696.84;;;1.60
70415;BMP280;57837;52.064;113.478;2023-11-18T16:04:04;93703.06;;;1.49
70415;BMP280;57837;52.064;113.478;2023-11-18T16:07:10;93706.03;;;1.26
70415;BMP280;57837;52.064;113.478;2023-11-18T16:10:15;93700.59;;;1.17
70415;BMP280;57837;52.064;113.478;2023-11-18T16:13:22;93702.41;;;1.16
70415;BMP280;57837;52.064;113.478;2023-11-18T16:16:25;93704.59;;;1.25
70415;BMP280;57837;52.064;113.478;2023-11-18T16:19:30;93698.03;;;1.31
70415;BMP280;57837;52.064;113.478;2023-11-18T16:22:34;93706.00;;;1.36
70415;BMP280;57837;52.064;113.478;2023-11-18T16:25:39;93703.09;;;1.34
70415;BMP280;57837;52.064;113.478;2023-11-18T16:28:43;93702.00;;;1.35
70415;BMP280;57837;52.064;113.478;2023-11-18T16:31:49;93702.34;;;1.48
70415;BMP280;57837;52.064;113.478;2023-11-18T16:34:54;93708.09;;;1.66
70415;BMP280;57837;52.064;113.478;2023-11-18T16:37:58;93710.63;;;1.81
70415;BMP280;57837;52.064;113.478;2023-11-18T16:41:03;93713.91;;;1.85
70415;BMP280;57837;52.064;113.478;2023-11-18T16:44:07;93711.00;;;1.76
70415;BMP280;57837;52.064;113.478;2023-11-18T16:47:14;93708.47;;;1.65
70415;BMP280;57837;52.064;113.478;2023-11-18T16:50:20;93716.53;;;1.53
70415;BMP280;57837;52.064;113.478;2023-11-18T16:53:24;93718.72;;;1.40
70415;BMP280;57837;52.064;113.478;2023-11-18T16:56:29;93722.44;;;1.32
70415;BMP280;57837;52.064;113.478;2023-11-18T16:59:33;93721.28;;;1.40
70415;BMP280;57837;52.064;113.478;2023-11-18T17:02:36;93721.28;;;1.44
70415;BMP280;57837;52.064;113.478;2023-11-18T17:05:40;93725.28;;;1.37
70415;BMP280;57837;52.064;113.478;2023-11-18T17:08:46;93722.44;;;1.32
70415;BMP280;57837;52.064;113.478;2023-11-18T17:11:51;93720.97;;;1.20
70415;BMP280;57837;52.064;113.478;2023-11-18T17:14:55;93719.88;;;1.14
70415;BMP280;57837;52.064;113.478;2023-11-18T17:17:59;93721.00;;;1.06
70415;BMP280;57837;52.064;113.478;2023-11-18T17:21:07;93718.44;;;0.95
70415;BMP280;57837;52.064;113.478;2023-11-18T17:24:11;93719.91;;;0.79
70415;BMP280;57837;52.064;113.478;2023-11-18T17:27:15;93720.97;;;0.67
70415;BMP280;57837;52.064;113.478;2023-11-18T17:30:21;93723.16;;;0.54
70415;BMP280;57837;52.064;113.478;2023-11-18T17:33:25;93718.41;;;0.49
70415;BMP280;57837;52.064;113.478;2023-11-18T17:36:34;93723.16;;;0.54
70415;BMP280;57837;52.064;113.478;2023-11-18T17:39:38;93730.41;;;0.52
70415;BMP280;57837;52.064;113.478;2023-11-18T17:42:43;93728.94;;;0.48
70415;BMP280;57837;52.064;113.478;2023-11-18T17:45:48;93732.94;;;0.42